sensor_id;sensor_type;location;lat;lon;timestamp;pressure;altitude;pressure_sealevel;temperature;humidity
51439;BME280;38816;51.142;-0.974;2023-05-20T00:00:07;101202.00;;;9.46;100.00
51439;BME280;38816;51.142;-0.974;2023-05-20T00:02:32;101203.34;;;9.36;100.00
51439;BME280;38816;51.142;-0.974;2023-05-20T00:04:58;101209.41;;;9.38;100.00
51439;BME280;38816;51.142;-0.974;2023-05-20T00:07:23;101200.72;;;9.34;100.00
51439;BME280;38816;51.142;-0.974;2023-05-20T00:09:48;101188.22;;;9.20;100.00
51439;BME280;38816;51.142;-0.974;2023-05-20T00:12:14;101179.66;;;9.19;100.00
51439;BME280;38816;51.142;-0.974;2023-05-20T00:14:39;101197.81;;;9.25;100.00
51439;BME280;38816;51.142;-0.974;2023-05-20T00:17:05;101181.28;;;9.17;100.00
51439;BME280;38816;51.142;-0.974;2023-05-20T00:19:30;101185.34;;;9.12;100.00
51439;BME280;38816;51.142;-0.974;2023-05-20T00:21:56;101193.75;;;9.08;100.00
51439;BME280;38816;51.142;-0.974;2023-05-20T00:24:22;101180.59;;;8.99;100.00
51439;BME280;38816;51.142;-0.974;2023-05-20T00:26:48;101191.66;;;8.98;100.00
51439;BME280;38816;51.142;-0.974;2023-05-20T00:29:13;101191.53;;;8.95;100.00
51439;BME280;38816;51.142;-0.974;2023-05-20T00:31:39;101193.09;;;8.91;100.00
51439;BME280;38816;51.142;-0.974;2023-05-20T00:34:04;101201.50;;;8.87;100.00
51439;BME280;38816;51.142;-0.974;2023-05-20T00:36:29;101190.28;;;8.83;100.00
51439;BME280;38816;51.142;-0.974;2023-05-20T00:38:55;101185.56;;;8.73;100.00
51439;BME280;38816;51.142;-0.974;2023-05-20T00:41:21;101188.03;;;8.70;100.00
51439;BME280;38816;51.142;-0.974;2023-05-20T00:43:46;101184.47;;;8.67;100.00
51439;BME280;38816;51.142;-0.974;2023-05-20T00:46:12;101185.91;;;8.60;100.00
51439;BME280;38816;51.142;-0.974;2023-05-20T00:48:42;101192.72;;;8.59;100.00
51439;BME280;38816;51.142;-0.974;2023-05-20T00:51:09;101189.97;;;8.55;100.00
51439;BME280;38816;51.142;-0.974;2023-05-20T00:53:35;101171.59;;;8.43;100.00
51439;BME280;38816;51.142;-0.974;2023-05-20T00:56:02;101189.75;;;8.49;100.00
51439;BME280;38816;51.142;-0.974;2023-05-20T00:58:28;101180.19;;;8.45;100.00
51439;BME280;38816;51.142;-0.974;2023-05-20T01:00:53;101188.84;;;8.47;100.00
51439;BME280;38816;51.142;-0.974;2023-05-20T01:03:19;101188.00;;;8.48;100.00
51439;BME280;38816;51.142;-0.974;2023-05-20T01:05:45;101179.97;;;8.39;100.00
51439;BME280;38816;51.142;-0.974;2023-05-20T01:08:11;101189.63;;;8.46;100.00
51439;BME280;38816;51.142;-0.974;2023-05-20T01:10:39;101181.94;;;8.46;100.00
51439;BME280;38816;51.142;-0.974;2023-05-20T01:13:10;101174.31;;;8.47;100.00
51439;BME280;38816;51.142;-0.974;2023-05-20T01:15:38;101169.13;;;8.46;100.00
51439;BME280;38816;51.142;-0.974;2023-05-20T01:18:07;101164.94;;;8.48;100.00
51439;BME280;38816;51.142;-0.974;2023-05-20T01:20:35;101162.31;;;8.46;100.00
51439;BME280;38816;51.142;-0.974;2023-05-20T01:23:01;101165.69;;;8.45;100.00
51439;BME280;38816;51.142;-0.974;2023-05-20T01:25:27;101169.19;;;8.47;100.00
51439;BME280;38816;51.142;-0.974;2023-05-20T01:27:54;101164.75;;;8.43;100.00
51439;BME280;38816;51.142;-0.974;2023-05-20T01:30:23;101155.00;;;8.34;100.00
51439;BME280;38816;51.142;-0.974;2023-05-20T01:33:00;101168.75;;;8.36;100.00
51439;BME280;38816;51.142;-0.974;2023-05-20T01:35:27;101165.91;;;8.30;100.00
51439;BME280;38816;51.142;-0.974;2023-05-20T01:37:55;101151.94;;;8.22;100.00
51439;BME280;38816;51.142;-0.974;2023-05-20T01:40:22;101160.44;;;8.21;100.00
51439;BME280;38816;51.142;-0.974;2023-05-20T01:42:48;101139.44;;;8.09;100.00
51439;BME280;38816;51.142;-0.974;2023-05-20T01:45:17;101159.44;;;8.18;100.00
51439;BME280;38816;51.142;-0.974;2023-05-20T01:47:45;101151.94;;;8.22;100.00
51439;BME280;38816;51.142;-0.974;2023-05-20T01:50:11;101152.38;;;8.12;100.00
51439;BME280;38816;51.142;-0.974;2023-05-20T01:52:36;101141.44;;;7.95;100.00
51439;BME280;38816;51.142;-0.974;2023-05-20T01:55:02;101148.28;;;7.96;100.00
51439;BME280;38816;51.142;-0.974;2023-05-20T01:57:27;101152.53;;;7.96;100.00
51439;BME280;38816;51.142;-0.974;2023-05-20T01:59:53;101152.31;;;7.90;100.00
51439;BME280;38816;51.142;-0.974;2023-05-20T02:02:18;101146.94;;;7.83;100.00
51439;BME280;38816;51.142;-0.974;2023-05-20T02:04:45;101150.41;;;7.85;100.00
51439;BME280;38816;51.142;-0.974;2023-05-20T02:07:14;101157.97;;;7.82;100.00
51439;BME280;38816;51.142;-0.974;2023-05-20T02:09:39;101156.94;;;7.79;100.00
51439;BME280;38816;51.142;-0.974;2023-05-20T02:12:06;101151.53;;;7.71;100.00
51439;BME280;38816;51.142;-0.974;2023-05-20T02:14:31;101146.94;;;7.64;100.00
51439;BME280;38816;51.142;-0.974;2023-05-20T02:16:57;101146.94;;;7.64;100.00
51439;BME280;38816;51.142;-0.974;2023-05-20T02:19:22;101147.75;;;7.63;100.00
51439;BME280;38816;51.142;-0.974;2023-05-20T02:21:48;101152.88;;;7.63;100.00
51439;BME280;38816;51.142;-0.974;2023-05-20T02:24:14;101151.13;;;7.62;100.00
51439;BME280;38816;51.142;-0.974;2023-05-20T02:26:40;101146.59;;;7.56;100.00
51439;BME280;38816;51.142;-0.974;2023-05-20T02:29:06;101143.13;;;7.54;100.00
51439;BME280;38816;51.142;-0.974;2023-05-20T02:31:32;101140.38;;;7.50;100.00
51439;BME280;38816;51.142;-0.974;2023-05-20T02:33:57;101132.34;;;7.42;100.00
51439;BME280;38816;51.142;-0.974;2023-05-20T02:36:23;101128.91;;;7.42;100.00
51439;BME280;38816;51.142;-0.974;2023-05-20T02:38:48;101141.81;;;7.43;100.00
51439;BME280;38816;51.142;-0.974;2023-05-20T02:41:13;101129.59;;;7.38;100.00
51439;BME280;38816;51.142;-0.974;2023-05-20T02:43:39;101134.81;;;7.39;100.00
51439;BME280;38816;51.142;-0.974;2023-05-20T02:46:05;101124.94;;;7.29;100.00
51439;BME280;38816;51.142;-0.974;2023-05-20T02:48:30;101129.28;;;7.30;100.00
51439;BME280;38816;51.142;-0.974;2023-05-20T02:50:57;101118.97;;;7.28;100.00
51439;BME280;38816;51.142;-0.974;2023-05-20T02:53:23;101125.16;;;7.33;100.00
51439;BME280;38816;51.142;-0.974;2023-05-20T02:55:49;101130.00;;;7.27;100.00
51439;BME280;38816;51.142;-0.974;2023-05-20T02:58:14;101123.00;;;7.23;100.00
51439;BME280;38816;51.142;-0.974;2023-05-20T03:00:41;101128.06;;;7.22;100.00
51439;BME280;38816;51.142;-0.974;2023-05-20T03:03:07;101121.72;;;7.14;100.00
51439;BME280;38816;51.142;-0.974;2023-05-20T03:05:34;101125.16;;;7.14;100.00
51439;BME280;38816;51.142;-0.974;2023-05-20T03:08:06;101115.50;;;7.07;100.00
51439;BME280;38816;51.142;-0.974;2023-05-20T03:10:34;101117.22;;;7.08;100.00
51439;BME280;38816;51.142;-0.974;2023-05-20T03:12:59;101127.38;;;7.06;100.00
51439;BME280;38816;51.142;-0.974;2023-05-20T03:15:25;101118.41;;;6.97;100.00
51439;BME280;38816;51.142;-0.974;2023-05-20T03:17:50;101123.47;;;6.95;100.00
51439;BME280;38816;51.142;-0.974;2023-05-20T03:20:16;101117.06;;;6.85;100.00
51439;BME280;38816;51.142;-0.974;2023-05-20T03:22:41;101105.56;;;6.76;100.00
51439;BME280;38816;51.142;-0.974;2023-05-20T03:25:07;101120.28;;;6.81;100.00
51439;BME280;38816;51.142;-0.974;2023-05-20T03:27:33;101104.41;;;6.69;100.00
51439;BME280;38816;51.142;-0.974;2023-05-20T03:30:01;101097.34;;;6.64;100.00
51439;BME280;38816;51.142;-0.974;2023-05-20T03:32:26;101102.28;;;6.60;100.00
51439;BME280;38816;51.142;-0.974;2023-05-20T03:34:52;101089.84;;;6.49;100.00
51439;BME280;38816;51.142;-0.974;2023-05-20T03:37:18;101100.78;;;6.46;100.00
51439;BME280;38816;51.142;-0.974;2023-05-20T03:39:44;101109.16;;;6.44;100.00
51439;BME280;38816;51.142;-0.974;2023-05-20T03:42:09;101102.19;;;6.40;100.00
51439;BME280;38816;51.142;-0.974;2023-05-20T03:44:35;101095.53;;;6.25;100.00
51439;BME280;38816;51.142;-0.974;2023-05-20T03:47:00;101103.28;;;6.27;100.00
51439;BME280;38816;51.142;-0.974;2023-05-20T03:49:26;101113.41;;;6.25;100.00
51439;BME280;38816;51.142;-0.974;2023-05-20T03:51:51;101120.28;;;6.26;100.00
51439;BME280;38816;51.142;-0.974;2023-05-20T03:54:16;101125.44;;;6.28;100.00
51439;BME280;38816;51.142;-0.974;2023-05-20T03:56:42;101105.19;;;6.13;100.00
51439;BME280;38816;51.142;-0.974;2023-05-20T03:59:07;101119.09;;;6.20;100.00
51439;BME280;38816;51.142;-0.974;2023-05-20T04:03:59;101119.53;;;6.11;100.00
51439;BME280;38816;51.142;-0.974;2023-05-20T04:06:24;101119.69;;;6.14;100.00
51439;BME280;38816;51.142;-0.974;2023-05-20T04:08:50;101103.28;;;6.09;100.00
51439;BME280;38816;51.142;-0.974;2023-05-20T04:11:17;101095.53;;;6.07;100.00
51439;BME280;38816;51.142;-0.974;2023-05-20T04:13:43;101098.97;;;6.08;100.00
51439;BME280;38816;51.142;-0.974;2023-05-20T04:16:08;101090.72;;;6.14;100.00
51439;BME280;38816;51.142;-0.974;2023-05-20T04:18:33;101090.72;;;6.14;100.00
51439;BME280;38816;51.142;-0.974;2023-05-20T04:21:03;101094.97;;;6.13;100.00
51439;BME280;38816;51.142;-0.974;2023-05-20T04:23:28;101099.47;;;6.19;100.00
51439;BME280;38816;51.142;-0.974;2023-05-20T04:25:54;101103.56;;;6.15;100.00
51439;BME280;38816;51.142;-0.974;2023-05-20T04:28:19;101098.16;;;6.09;100.00
51439;BME280;38816;51.142;-0.974;2023-05-20T04:30:48;101102.31;;;6.07;100.00
51439;BME280;38816;51.142;-0.974;2023-05-20T04:33:14;101098.28;;;6.12;100.00
51439;BME280;38816;51.142;-0.974;2023-05-20T04:35:40;101099.41;;;6.17;100.00
51439;BME280;38816;51.142;-0.974;2023-05-20T04:38:06;101091.44;;;6.11;100.00
51439;BME280;38816;51.142;-0.974;2023-05-20T04:40:32;101102.41;;;6.26;100.00
51439;BME280;38816;51.142;-0.974;2023-05-20T04:43:01;101110.19;;;6.29;100.00
51439;BME280;38816;51.142;-0.974;2023-05-20T04:45:28;101113.78;;;6.33;100.00
51439;BME280;38816;51.142;-0.974;2023-05-20T04:47:53;101110.41;;;6.34;100.00
51439;BME280;38816;51.142;-0.974;2023-05-20T04:50:19;101111.66;;;6.42;100.00
51439;BME280;38816;51.142;-0.974;2023-05-20T04:52:45;101101.38;;;6.41;100.00
51439;BME280;38816;51.142;-0.974;2023-05-20T04:55:11;101094.66;;;6.43;100.00
51439;BME280;38816;51.142;-0.974;2023-05-20T04:57:37;101104.88;;;6.43;100.00
51439;BME280;38816;51.142;-0.974;2023-05-20T05:00:10;101106.91;;;6.50;100.00
51439;BME280;38816;51.142;-0.974;2023-05-20T05:02:36;101108.66;;;6.51;100.00
51439;BME280;38816;51.142;-0.974;2023-05-20T05:05:02;101097.63;;;6.52;100.00
51439;BME280;38816;51.142;-0.974;2023-05-20T05:07:27;101106.38;;;6.57;100.00
51439;BME280;38816;51.142;-0.974;2023-05-20T05:09:53;101108.41;;;6.64;100.00
51439;BME280;38816;51.142;-0.974;2023-05-20T05:12:18;101105.16;;;6.67;100.00
51439;BME280;38816;51.142;-0.974;2023-05-20T05:14:43;101111.25;;;6.70;100.00
51439;BME280;38816;51.142;-0.974;2023-05-20T05:17:09;101107.16;;;6.74;100.00
51439;BME280;38816;51.142;-0.974;2023-05-20T05:19:34;101108.44;;;6.83;100.00
51439;BME280;38816;51.142;-0.974;2023-05-20T05:22:00;101116.47;;;6.91;100.00
51439;BME280;38816;51.142;-0.974;2023-05-20T05:24:25;101114.84;;;6.93;100.00
51439;BME280;38816;51.142;-0.974;2023-05-20T05:26:54;101108.13;;;6.95;100.00
51439;BME280;38816;51.142;-0.974;2023-05-20T05:29:19;101108.22;;;7.16;100.00
51439;BME280;38816;51.142;-0.974;2023-05-20T05:31:45;101107.00;;;7.27;100.00
51439;BME280;38816;51.142;-0.974;2023-05-20T05:34:10;101102.94;;;7.32;100.00
51439;BME280;38816;51.142;-0.974;2023-05-20T05:36:38;101101.22;;;7.31;100.00
51439;BME280;38816;51.142;-0.974;2023-05-20T05:39:03;101105.91;;;7.42;100.00
51439;BME280;38816;51.142;-0.974;2023-05-20T05:41:29;101097.88;;;7.53;100.00
51439;BME280;38816;51.142;-0.974;2023-05-20T05:43:54;101105.19;;;7.65;100.00
51439;BME280;38816;51.142;-0.974;2023-05-20T05:46:20;101110.31;;;7.65;100.00
51439;BME280;38816;51.142;-0.974;2023-05-20T05:48:45;101095.56;;;7.59;100.00
51439;BME280;38816;51.142;-0.974;2023-05-20T05:51:13;101090.41;;;7.58;100.00
51439;BME280;38816;51.142;-0.974;2023-05-20T05:53:39;101102.13;;;7.74;100.00
51439;BME280;38816;51.142;-0.974;2023-05-20T05:56:05;101101.72;;;7.84;100.00
51439;BME280;38816;51.142;-0.974;2023-05-20T05:58:30;101080.25;;;7.80;100.00
51439;BME280;38816;51.142;-0.974;2023-05-20T06:00:57;101096.03;;;7.91;100.00
51439;BME280;38816;51.142;-0.974;2023-05-20T06:03:23;101108.28;;;7.98;100.00
51439;BME280;38816;51.142;-0.974;2023-05-20T06:05:48;101109.34;;;8.03;100.00
51439;BME280;38816;51.142;-0.974;2023-05-20T06:08:13;101087.13;;;8.02;100.00
51439;BME280;38816;51.142;-0.974;2023-05-20T06:10:39;101104.78;;;8.17;100.00
51439;BME280;38816;51.142;-0.974;2023-05-20T06:13:04;101118.13;;;8.31;100.00
51439;BME280;38816;51.142;-0.974;2023-05-20T06:15:30;101105.25;;;8.29;100.00
51439;BME280;38816;51.142;-0.974;2023-05-20T06:17:55;101110.44;;;8.31;100.00
51439;BME280;38816;51.142;-0.974;2023-05-20T06:20:21;101121.84;;;8.38;100.00
51439;BME280;38816;51.142;-0.974;2023-05-20T06:22:46;101106.53;;;8.39;100.00
51439;BME280;38816;51.142;-0.974;2023-05-20T06:25:12;101094.38;;;8.35;100.00
51439;BME280;38816;51.142;-0.974;2023-05-20T06:27:38;101099.38;;;8.53;100.00
51439;BME280;38816;51.142;-0.974;2023-05-20T06:30:04;101094.59;;;8.62;100.00
51439;BME280;38816;51.142;-0.974;2023-05-20T06:32:30;101098.41;;;8.73;100.00
51439;BME280;38816;51.142;-0.974;2023-05-20T06:34:55;101098.75;;;8.82;100.00
51439;BME280;38816;51.142;-0.974;2023-05-20T06:37:20;101095.25;;;8.79;100.00
51439;BME280;38816;51.142;-0.974;2023-05-20T06:39:49;101095.75;;;8.93;100.00
51439;BME280;38816;51.142;-0.974;2023-05-20T06:42:18;101095.25;;;9.03;100.00
51439;BME280;38816;51.142;-0.974;2023-05-20T06:44:43;101091.53;;;8.95;100.00
51439;BME280;38816;51.142;-0.974;2023-05-20T06:47:09;101084.13;;;9.02;100.00
51439;BME280;38816;51.142;-0.974;2023-05-20T06:49:34;101084.94;;;9.25;100.00
51439;BME280;38816;51.142;-0.974;2023-05-20T06:52:00;101077.84;;;9.42;100.00
51439;BME280;38816;51.142;-0.974;2023-05-20T06:54:25;101083.44;;;9.56;100.00
51439;BME280;38816;51.142;-0.974;2023-05-20T06:56:50;101091.19;;;9.57;100.00
51439;BME280;38816;51.142;-0.974;2023-05-20T06:59:16;101075.34;;;9.69;100.00
51439;BME280;38816;51.142;-0.974;2023-05-20T07:01:41;101080.19;;;9.87;100.00
51439;BME280;38816;51.142;-0.974;2023-05-20T07:04:06;101087.91;;;10.14;100.00
51439;BME280;38816;51.142;-0.974;2023-05-20T07:06:32;101079.81;;;10.27;100.00
51439;BME280;38816;51.142;-0.974;2023-05-20T07:08:57;101079.34;;;10.41;100.00
51439;BME280;38816;51.142;-0.974;2023-05-20T07:11:22;101074.56;;;10.53;100.00
51439;BME280;38816;51.142;-0.974;2023-05-20T07:13:48;101072.94;;;10.55;100.00
51439;BME280;38816;51.142;-0.974;2023-05-20T07:16:13;101069.69;;;10.62;100.00
51439;BME280;38816;51.142;-0.974;2023-05-20T07:18:38;101076.00;;;10.72;100.00
51439;BME280;38816;51.142;-0.974;2023-05-20T07:21:04;101071.00;;;10.76;100.00
51439;BME280;38816;51.142;-0.974;2023-05-20T07:23:29;101067.72;;;10.82;100.00
51439;BME280;38816;51.142;-0.974;2023-05-20T07:25:55;101074.28;;;11.02;100.00
51439;BME280;38816;51.142;-0.974;2023-05-20T07:28:20;101055.50;;;11.05;100.00
51439;BME280;38816;51.142;-0.974;2023-05-20T07:30:46;101072.44;;;11.30;100.00
51439;BME280;38816;51.142;-0.974;2023-05-20T07:33:15;101077.69;;;11.66;100.00
51439;BME280;38816;51.142;-0.974;2023-05-20T07:35:42;101073.19;;;11.90;100.00
51439;BME280;38816;51.142;-0.974;2023-05-20T07:38:07;101067.59;;;12.07;100.00
51439;BME280;38816;51.142;-0.974;2023-05-20T07:40:33;101074.97;;;12.29;100.00
51439;BME280;38816;51.142;-0.974;2023-05-20T07:42:58;101080.00;;;12.62;100.00
51439;BME280;38816;51.142;-0.974;2023-05-20T07:45:23;101080.22;;;12.73;100.00
51439;BME280;38816;51.142;-0.974;2023-05-20T07:47:49;101079.13;;;12.62;100.00
51439;BME280;38816;51.142;-0.974;2023-05-20T07:50:14;101078.97;;;12.54;100.00
51439;BME280;38816;51.142;-0.974;2023-05-20T07:52:39;101075.72;;;12.63;100.00
51439;BME280;38816;51.142;-0.974;2023-05-20T07:55:05;101063.13;;;12.78;100.00
51439;BME280;38816;51.142;-0.974;2023-05-20T07:57:31;101067.78;;;12.96;100.00
51439;BME280;38816;51.142;-0.974;2023-05-20T07:59:56;101074.06;;;13.09;100.00
51439;BME280;38816;51.142;-0.974;2023-05-20T08:02:22;101074.13;;;13.12;100.00
51439;BME280;38816;51.142;-0.974;2023-05-20T08:04:47;101062.00;;;13.08;100.00
51439;BME280;38816;51.142;-0.974;2023-05-20T08:07:12;101069.06;;;13.18;100.00
51439;BME280;38816;51.142;-0.974;2023-05-20T08:09:38;101064.72;;;13.15;100.00
51439;BME280;38816;51.142;-0.974;2023-05-20T08:12:03;101060.13;;;13.01;99.64
51439;BME280;38816;51.142;-0.974;2023-05-20T08:14:28;101064.47;;;13.02;100.00
51439;BME280;38816;51.142;-0.974;2023-05-20T08:16:54;101046.25;;;12.96;99.99
51439;BME280;38816;51.142;-0.974;2023-05-20T08:19:20;101054.16;;;13.02;100.00
51439;BME280;38816;51.142;-0.974;2023-05-20T08:21:45;101064.56;;;13.08;100.00
51439;BME280;38816;51.142;-0.974;2023-05-20T08:24:11;101056.00;;;13.09;100.00
51439;BME280;38816;51.142;-0.974;2023-05-20T08:26:36;101061.31;;;13.18;100.00
51439;BME280;38816;51.142;-0.974;2023-05-20T08:29:02;101056.41;;;13.29;100.00
51439;BME280;38816;51.142;-0.974;2023-05-20T08:31:27;101054.72;;;13.31;100.00
51439;BME280;38816;51.142;-0.974;2023-05-20T08:33:53;101054.50;;;13.20;100.00
51439;BME280;38816;51.142;-0.974;2023-05-20T08:36:18;101042.31;;;13.14;100.00
51439;BME280;38816;51.142;-0.974;2023-05-20T08:38:43;101051.03;;;13.20;100.00
51439;BME280;38816;51.142;-0.974;2023-05-20T08:41:09;101046.78;;;13.22;99.43
51439;BME280;38816;51.142;-0.974;2023-05-20T08:43:34;101047.75;;;13.28;100.00
51439;BME280;38816;51.142;-0.974;2023-05-20T08:46:01;101052.44;;;13.48;100.00
51439;BME280;38816;51.142;-0.974;2023-05-20T08:48:29;101042.91;;;13.43;98.13
51439;BME280;38816;51.142;-0.974;2023-05-20T08:50:56;101049.88;;;13.51;98.99
51439;BME280;38816;51.142;-0.974;2023-05-20T08:53:22;101055.19;;;13.58;100.00
51439;BME280;38816;51.142;-0.974;2023-05-20T08:55:52;101047.53;;;13.63;98.94
51439;BME280;38816;51.142;-0.974;2023-05-20T08:58:20;101043.28;;;13.65;97.90
51439;BME280;38816;51.142;-0.974;2023-05-20T09:00:45;101043.22;;;13.63;96.80
51439;BME280;38816;51.142;-0.974;2023-05-20T09:03:11;101030.38;;;13.68;97.29
51439;BME280;38816;51.142;-0.974;2023-05-20T09:05:36;101041.00;;;13.86;97.24
51439;BME280;38816;51.142;-0.974;2023-05-20T09:10:31;101037.03;;;14.07;94.74
51439;BME280;38816;51.142;-0.974;2023-05-20T09:12:59;101032.84;;;14.16;92.62
51439;BME280;38816;51.142;-0.974;2023-05-20T09:15:26;101034.72;;;14.25;91.78
51439;BME280;38816;51.142;-0.974;2023-05-20T09:17:52;101036.50;;;14.29;91.49
51439;BME280;38816;51.142;-0.974;2023-05-20T09:20:20;101046.94;;;14.37;90.01
51439;BME280;38816;51.142;-0.974;2023-05-20T09:22:46;101032.25;;;14.33;88.75
51439;BME280;38816;51.142;-0.974;2023-05-20T09:25:11;101040.00;;;14.36;90.36
51439;BME280;38816;51.142;-0.974;2023-05-20T09:27:38;101034.22;;;14.51;91.44
51439;BME280;38816;51.142;-0.974;2023-05-20T09:30:07;101037.06;;;14.72;89.32
51439;BME280;38816;51.142;-0.974;2023-05-20T09:32:33;101034.63;;;14.83;86.90
51439;BME280;38816;51.142;-0.974;2023-05-20T09:34:58;101031.22;;;14.87;86.89
51439;BME280;38816;51.142;-0.974;2023-05-20T09:37:26;101021.88;;;15.00;86.83
51439;BME280;38816;51.142;-0.974;2023-05-20T09:40:02;101006.34;;;15.03;87.20
51439;BME280;38816;51.142;-0.974;2023-05-20T09:45:36;101006.75;;;15.42;84.31
51439;BME280;38816;51.142;-0.974;2023-05-20T09:48:02;101022.41;;;15.56;81.08
51439;BME280;38816;51.142;-0.974;2023-05-20T09:50:30;101018.94;;;15.56;82.09
51439;BME280;38816;51.142;-0.974;2023-05-20T09:53:01;101010.38;;;15.63;80.98
51439;BME280;38816;51.142;-0.974;2023-05-20T09:55:26;101016.50;;;15.69;82.51
51439;BME280;38816;51.142;-0.974;2023-05-20T09:57:52;101010.50;;;15.75;81.01
51439;BME280;38816;51.142;-0.974;2023-05-20T10:00:18;101007.16;;;15.91;78.40
51439;BME280;38816;51.142;-0.974;2023-05-20T10:02:46;101007.19;;;15.98;80.30
51439;BME280;38816;51.142;-0.974;2023-05-20T10:05:17;101005.56;;;16.15;81.46
51439;BME280;38816;51.142;-0.974;2023-05-20T10:08:09;101006.50;;;16.29;78.05
51439;BME280;38816;51.142;-0.974;2023-05-20T10:19:28;100983.31;;;16.63;72.55
51439;BME280;38816;51.142;-0.974;2023-05-20T10:22:05;100990.25;;;16.70;74.28
51439;BME280;38816;51.142;-0.974;2023-05-20T10:24:38;100990.34;;;16.88;72.09
51439;BME280;38816;51.142;-0.974;2023-05-20T10:27:09;100981.69;;;16.92;72.29
51439;BME280;38816;51.142;-0.974;2023-05-20T10:29:55;100980.00;;;17.08;70.59
51439;BME280;38816;51.142;-0.974;2023-05-20T10:32:31;100977.41;;;17.19;71.37
51439;BME280;38816;51.142;-0.974;2023-05-20T10:35:20;100984.38;;;17.38;67.80
51439;BME280;38816;51.142;-0.974;2023-05-20T10:37:45;100967.91;;;17.45;67.22
51439;BME280;38816;51.142;-0.974;2023-05-20T10:40:13;100971.34;;;17.60;65.91
51439;BME280;38816;51.142;-0.974;2023-05-20T10:42:40;100966.16;;;17.51;68.20
51439;BME280;38816;51.142;-0.974;2023-05-20T10:45:06;100967.03;;;17.71;68.23
51439;BME280;38816;51.142;-0.974;2023-05-20T10:47:32;100964.44;;;17.82;63.40
51439;BME280;38816;51.142;-0.974;2023-05-20T10:49:58;100961.84;;;17.76;65.84
51439;BME280;38816;51.142;-0.974;2023-05-20T10:52:25;100959.22;;;17.88;64.67
51439;BME280;38816;51.142;-0.974;2023-05-20T10:54:58;100946.19;;;17.94;64.91
51439;BME280;38816;51.142;-0.974;2023-05-20T10:57:26;100954.81;;;18.08;64.63
51439;BME280;38816;51.142;-0.974;2023-05-20T10:59:58;100950.47;;;18.19;63.69
51439;BME280;38816;51.142;-0.974;2023-05-20T11:02:25;100938.28;;;18.29;63.36
51439;BME280;38816;51.142;-0.974;2023-05-20T11:04:52;100956.34;;;18.58;63.83
51439;BME280;38816;51.142;-0.974;2023-05-20T11:09:50;100942.38;;;18.84;61.34
51439;BME280;38816;51.142;-0.974;2023-05-20T11:12:16;100932.78;;;18.87;58.50
51439;BME280;38816;51.142;-0.974;2023-05-20T11:14:41;100935.25;;;19.04;60.06
51439;BME280;38816;51.142;-0.974;2023-05-20T11:17:06;100940.41;;;19.15;56.93
51439;BME280;38816;51.142;-0.974;2023-05-20T11:19:32;100937.81;;;19.15;58.56
51439;BME280;38816;51.142;-0.974;2023-05-20T11:21:57;100921.41;;;18.99;59.25
51439;BME280;38816;51.142;-0.974;2023-05-20T11:24:26;100934.41;;;19.04;57.93
51439;BME280;38816;51.142;-0.974;2023-05-20T11:26:54;100941.00;;;19.51;54.77
51439;BME280;38816;51.142;-0.974;2023-05-20T11:29:19;100926.78;;;19.82;53.86
51439;BME280;38816;51.142;-0.974;2023-05-20T11:31:48;100928.03;;;20.24;52.70
51439;BME280;38816;51.142;-0.974;2023-05-20T11:34:14;100914.72;;;20.49;51.07
51439;BME280;38816;51.142;-0.974;2023-05-20T11:36:42;100918.84;;;20.64;52.05
51439;BME280;38816;51.142;-0.974;2023-05-20T11:39:11;100928.63;;;20.48;49.59
51439;BME280;38816;51.142;-0.974;2023-05-20T11:41:38;100916.34;;;19.82;51.32
51439;BME280;38816;51.142;-0.974;2023-05-20T11:44:03;100918.25;;;19.66;51.72
51439;BME280;38816;51.142;-0.974;2023-05-20T11:46:29;100908.19;;;20.08;51.27
51439;BME280;38816;51.142;-0.974;2023-05-20T11:48:56;100903.47;;;20.39;49.69
51439;BME280;38816;51.142;-0.974;2023-05-20T11:51:23;100904.28;;;20.44;52.00
51439;BME280;38816;51.142;-0.974;2023-05-20T11:53:48;100904.72;;;20.11;51.26
51439;BME280;38816;51.142;-0.974;2023-05-20T11:56:14;100904.34;;;19.66;50.94
51439;BME280;38816;51.142;-0.974;2023-05-20T11:58:42;100901.97;;;19.38;51.57
51439;BME280;38816;51.142;-0.974;2023-05-20T12:01:08;100905.31;;;19.53;52.76
51439;BME280;38816;51.142;-0.974;2023-05-20T12:03:34;100900.91;;;19.62;49.01
51439;BME280;38816;51.142;-0.974;2023-05-20T12:06:01;100903.31;;;19.82;48.93
51439;BME280;38816;51.142;-0.974;2023-05-20T12:08:27;100902.41;;;19.86;49.92
51439;BME280;38816;51.142;-0.974;2023-05-20T12:10:53;100893.91;;;20.40;50.46
51439;BME280;38816;51.142;-0.974;2023-05-20T12:13:18;100886.53;;;20.69;49.22
51439;BME280;38816;51.142;-0.974;2023-05-20T12:15:43;100878.88;;;20.59;47.66
51439;BME280;38816;51.142;-0.974;2023-05-20T12:18:09;100892.34;;;20.25;48.03
51439;BME280;38816;51.142;-0.974;2023-05-20T12:20:35;100891.94;;;19.88;47.13
51439;BME280;38816;51.142;-0.974;2023-05-20T12:23:01;100888.91;;;19.40;48.87
51439;BME280;38816;51.142;-0.974;2023-05-20T12:25:27;100880.19;;;19.45;51.49
51439;BME280;38816;51.142;-0.974;2023-05-20T12:27:52;100863.38;;;19.76;51.21
51439;BME280;38816;51.142;-0.974;2023-05-20T12:30:20;100853.31;;;20.16;51.57
51439;BME280;38816;51.142;-0.974;2023-05-20T12:32:47;100870.09;;;20.63;46.95
51439;BME280;38816;51.142;-0.974;2023-05-20T12:35:14;100863.97;;;20.64;47.30
51439;BME280;38816;51.142;-0.974;2023-05-20T12:37:40;100868.59;;;20.45;46.50
51439;BME280;38816;51.142;-0.974;2023-05-20T12:40:07;100859.75;;;20.55;50.06
51439;BME280;38816;51.142;-0.974;2023-05-20T12:42:40;100858.22;;;20.99;49.85
51439;BME280;38816;51.142;-0.974;2023-05-20T12:45:06;100856.25;;;21.60;48.26
51439;BME280;38816;51.142;-0.974;2023-05-20T12:47:33;100865.56;;;21.74;43.83
51439;BME280;38816;51.142;-0.974;2023-05-20T12:49:59;100862.22;;;21.18;45.30
51439;BME280;38816;51.142;-0.974;2023-05-20T12:52:25;100863.16;;;20.60;47.19